createdAt,value
2019-03-27T00:00:43.770Z,8.55
2019-03-27T00:01:39.340Z,8.57
2019-03-27T00:02:39.338Z,8.54
2019-03-27T00:03:39.344Z,8.49
2019-03-27T00:06:14.579Z,8.61
2019-03-27T00:07:11.084Z,8.68
2019-03-27T00:08:11.085Z,8.57
2019-03-27T00:09:32.584Z,8.54
2019-03-27T00:10:11.582Z,8.47
2019-03-27T00:11:16.351Z,8.39
2019-03-27T00:12:11.584Z,8.42
2019-03-27T00:13:12.084Z,8.34
2019-03-27T00:15:43.442Z,8.45
2019-03-27T00:16:47.453Z,8.42
2019-03-27T00:17:43.459Z,8.42
2019-03-27T00:18:43.957Z,8.42
2019-03-27T00:19:43.948Z,8.40
2019-03-27T00:20:46.883Z,8.37
2019-03-27T00:21:43.956Z,8.40
2019-03-27T00:22:48.450Z,8.37
2019-03-27T00:23:44.449Z,8.37
2019-03-27T00:25:05.445Z,8.42
2019-03-27T00:25:44.454Z,8.31
2019-03-27T00:26:44.948Z,8.43
2019-03-27T00:27:46.392Z,8.40
2019-03-27T00:28:48.448Z,8.40
2019-03-27T00:29:44.959Z,8.37
2019-03-27T00:30:44.948Z,8.39
2019-03-27T00:32:06.449Z,8.40
2019-03-27T00:32:45.448Z,8.43
2019-03-27T00:34:10.448Z,8.42
2019-03-27T00:34:45.447Z,8.37
2019-03-27T00:35:45.948Z,8.43
2019-03-27T00:36:45.947Z,8.37
2019-03-27T00:37:45.948Z,8.29
2019-03-27T00:38:45.947Z,8.27
2019-03-27T00:39:49.447Z,8.24
2019-03-27T00:40:46.449Z,8.28
2019-03-27T00:41:47.388Z,8.31
2019-03-27T00:42:46.451Z,8.22
2019-03-27T00:43:46.948Z,8.28
2019-03-27T00:44:50.446Z,8.25
2019-03-27T00:45:46.953Z,8.28
2019-03-27T00:46:46.949Z,8.39
2019-03-27T00:47:49.452Z,8.29
2019-03-27T00:48:47.452Z,8.28
2019-03-27T00:49:47.454Z,8.29
2019-03-27T00:50:51.457Z,8.27
2019-03-27T00:51:47.947Z,8.28
2019-03-27T00:52:47.947Z,8.25
2019-03-27T00:53:47.947Z,8.21
2019-03-27T00:54:48.076Z,8.22
2019-03-27T00:55:48.441Z,8.28
2019-03-27T00:56:51.446Z,8.21
2019-03-27T00:57:48.446Z,8.25
2019-03-27T00:58:48.446Z,8.22
2019-03-27T00:59:48.946Z,8.36
2019-03-27T01:00:48.946Z,8.20
2019-03-27T01:01:52.455Z,8.21
2019-03-27T01:02:48.946Z,8.32
2019-03-27T01:03:49.442Z,8.29
2019-03-27T01:04:49.445Z,8.28
2019-03-27T01:05:49.452Z,8.32
2019-03-27T01:06:50.965Z,8.27
2019-03-27T01:07:55.445Z,8.28
2019-03-27T01:08:49.953Z,8.32
2019-03-27T01:09:49.954Z,8.25
2019-03-27T01:10:49.945Z,8.37
2019-03-27T01:11:52.445Z,8.34
2019-03-27T01:12:50.445Z,8.37
2019-03-27T01:13:53.445Z,8.36
2019-03-27T01:15:11.452Z,8.36
2019-03-27T01:15:50.945Z,8.39
2019-03-27T01:16:50.945Z,8.27
2019-03-27T01:17:50.945Z,8.27
2019-03-27T01:18:54.951Z,8.28
2019-03-27T01:19:51.449Z,8.40
2019-03-27T01:20:51.445Z,8.37
2019-03-27T01:21:51.511Z,8.28
2019-03-27T01:22:51.445Z,8.22
2019-03-27T01:23:51.445Z,8.27
2019-03-27T01:24:55.944Z,8.27
2019-03-27T01:25:51.950Z,8.22
2019-03-27T01:26:51.944Z,8.24
2019-03-27T01:27:51.946Z,8.31
2019-03-27T01:28:52.447Z,8.28
2019-03-27T01:29:52.479Z,8.24
2019-03-27T01:30:55.947Z,8.27
2019-03-27T01:31:52.447Z,8.25
2019-03-27T01:32:52.946Z,8.24
2019-03-27T01:33:52.946Z,8.22
2019-03-27T01:34:52.944Z,8.25
2019-03-27T01:35:56.943Z,8.14
2019-03-27T01:36:53.444Z,8.14
2019-03-27T01:37:53.444Z,8.28
2019-03-27T01:38:53.445Z,8.14
2019-03-27T01:39:53.444Z,8.10
2019-03-27T01:40:54.896Z,8.09
2019-03-27T01:41:56.943Z,8.21
2019-03-27T01:42:53.946Z,8.21
2019-03-27T01:43:53.943Z,8.17
2019-03-27T01:44:53.945Z,8.17
2019-03-27T01:45:54.448Z,8.20
2019-03-27T01:46:57.944Z,8.10
2019-03-27T01:47:54.444Z,8.17
2019-03-27T01:48:54.443Z,8.09
2019-03-27T01:51:26.181Z,8.12
2019-03-27T01:52:29.683Z,8.18
2019-03-27T01:53:26.186Z,8.09
2019-03-27T01:54:47.683Z,8.06
2019-03-27T01:55:26.683Z,8.06
2019-03-27T01:56:26.683Z,8.18
2019-03-27T01:57:30.684Z,8.03
2019-03-27T01:58:27.183Z,8.03
2019-03-27T01:59:28.626Z,8.04
2019-03-27T02:00:27.185Z,7.89
2019-03-27T02:01:27.183Z,7.99
2019-03-27T02:02:27.196Z,7.89
2019-03-27T02:03:30.691Z,7.82
2019-03-27T02:04:27.681Z,7.95
2019-03-27T02:05:27.684Z,7.84
2019-03-27T02:06:27.682Z,7.95
2019-03-27T02:07:28.195Z,7.91
2019-03-27T02:08:32.193Z,7.96
2019-03-27T02:09:28.204Z,7.91
2019-03-27T02:10:28.182Z,8.04
2019-03-27T02:11:28.685Z,7.91
2019-03-27T02:12:28.692Z,7.92
2019-03-27T02:13:28.682Z,8.04
2019-03-27T02:14:32.189Z,8.06
2019-03-27T02:15:29.182Z,7.95
2019-03-27T02:16:29.187Z,8.02
2019-03-27T02:17:29.179Z,7.99
2019-03-27T02:18:29.198Z,7.94
2019-03-27T02:19:33.184Z,7.89
2019-03-27T02:20:50.681Z,7.85
2019-03-27T02:21:29.681Z,7.89
2019-03-27T02:22:31.682Z,7.86
2019-03-27T02:23:30.181Z,7.84
2019-03-27T02:24:33.182Z,7.85
2019-03-27T02:25:30.181Z,7.85
2019-03-27T02:26:30.181Z,7.86
2019-03-27T02:27:30.684Z,7.81
2019-03-27T02:28:51.681Z,7.81
2019-03-27T02:29:55.182Z,7.84
2019-03-27T02:30:30.682Z,7.81
2019-03-27T02:31:52.235Z,7.86
2019-03-27T02:32:31.188Z,7.89
2019-03-27T02:33:31.186Z,7.76
2019-03-27T02:34:31.182Z,7.74
2019-03-27T02:35:35.185Z,7.76
2019-03-27T02:36:31.683Z,7.86
2019-03-27T02:37:31.694Z,7.84
2019-03-27T02:38:31.682Z,7.85
2019-03-27T02:39:31.689Z,7.85
2019-03-27T02:40:32.181Z,7.86
2019-03-27T02:41:35.187Z,7.92
2019-03-27T02:42:32.188Z,7.95
2019-03-27T02:43:32.202Z,7.94
2019-03-27T02:44:32.682Z,7.89
2019-03-27T02:45:32.686Z,7.77
2019-03-27T02:46:36.685Z,7.74
2019-03-27T02:47:32.680Z,7.77
2019-03-27T02:48:33.187Z,7.74
2019-03-27T02:49:33.181Z,7.76
2019-03-27T02:50:34.160Z,7.73
2019-03-27T02:51:33.183Z,7.77
2019-03-27T02:52:58.681Z,7.81
2019-03-27T02:53:33.680Z,7.74
2019-03-27T02:54:33.682Z,7.63
2019-03-27T02:55:33.681Z,7.76
2019-03-27T02:56:34.184Z,7.73
2019-03-27T02:57:34.180Z,7.73
2019-03-27T02:58:37.681Z,7.77
2019-03-27T02:59:34.185Z,7.73
2019-03-27T03:00:34.679Z,7.67
2019-03-27T03:01:34.679Z,7.70
2019-03-27T03:02:34.702Z,7.73
2019-03-27T03:03:38.686Z,7.73
2019-03-27T03:04:56.178Z,7.76
2019-03-27T03:05:56.181Z,7.76
2019-03-27T03:06:35.181Z,7.73
2019-03-27T03:07:35.179Z,7.63
2019-03-27T03:08:35.699Z,7.60
2019-03-27T03:09:38.679Z,7.60
2019-03-27T03:10:35.680Z,7.60
2019-03-27T03:11:35.679Z,7.52
2019-03-27T03:12:36.208Z,7.54
2019-03-27T03:13:57.199Z,7.48
2019-03-27T03:14:39.698Z,7.45
2019-03-27T03:15:36.184Z,7.36
2019-03-27T03:16:42.518Z,7.41
2019-03-27T03:17:37.617Z,7.45
2019-03-27T03:18:36.680Z,7.41
2019-03-27T03:19:36.684Z,7.34
2019-03-27T03:20:40.683Z,7.36
2019-03-27T03:23:29.907Z,7.36
2019-03-27T03:24:29.925Z,7.42
2019-03-27T03:25:08.921Z,7.36
2019-03-27T03:26:12.429Z,7.41
2019-03-27T03:27:11.416Z,7.37
2019-03-27T03:28:32.416Z,7.33
2019-03-27T03:29:31.872Z,7.42
2019-03-27T03:30:09.419Z,7.41
2019-03-27T03:31:13.441Z,7.32
2019-03-27T03:33:41.296Z,7.39
2019-03-27T03:34:41.289Z,7.36
2019-03-27T03:35:41.283Z,7.33
2019-03-27T03:36:45.280Z,7.37
2019-03-27T03:37:41.778Z,7.29
2019-03-27T03:38:41.779Z,7.36
2019-03-27T03:39:41.779Z,7.36
2019-03-27T03:40:42.278Z,7.37
2019-03-27T03:41:42.279Z,7.34
2019-03-27T03:42:46.297Z,7.34
2019-03-27T03:43:42.374Z,7.39
2019-03-27T03:45:03.789Z,7.44
2019-03-27T03:45:42.779Z,7.34
2019-03-27T03:46:58.902Z,7.33
2019-03-27T03:47:42.786Z,7.34
2019-03-27T03:48:46.278Z,7.34
2019-03-27T03:49:43.279Z,7.37
2019-03-27T03:50:43.297Z,7.37
2019-03-27T03:51:43.303Z,7.41
2019-03-27T03:52:45.857Z,7.36
2019-03-27T03:53:47.302Z,7.39
2019-03-27T03:54:43.775Z,7.42
2019-03-27T03:55:43.778Z,7.37
2019-03-27T03:56:44.281Z,7.44
2019-03-27T03:57:44.287Z,7.47
2019-03-27T03:58:44.278Z,7.42
2019-03-27T03:59:48.399Z,7.47
2019-03-27T04:01:05.776Z,7.42
2019-03-27T04:01:44.777Z,7.36
2019-03-27T04:02:44.780Z,7.33
2019-03-27T04:03:44.783Z,7.27
2019-03-27T04:04:45.276Z,7.30
2019-03-27T04:05:48.288Z,7.27
2019-03-27T04:06:45.276Z,7.27
2019-03-27T04:07:45.282Z,7.29
2019-03-27T04:08:45.781Z,7.27
2019-03-27T04:09:45.774Z,7.36
2019-03-27T04:10:49.282Z,7.33
2019-03-27T04:11:45.777Z,7.44
2019-03-27T04:12:46.277Z,7.45
2019-03-27T04:14:07.275Z,7.39
2019-03-27T04:14:46.278Z,7.48
2019-03-27T04:15:46.277Z,7.47
2019-03-27T04:16:50.334Z,7.42
2019-03-27T04:17:46.796Z,7.45
2019-03-27T04:18:46.779Z,7.47
2019-03-27T04:19:48.212Z,7.39
2019-03-27T04:20:46.776Z,7.39
2019-03-27T04:22:11.775Z,7.42
2019-03-27T04:22:47.277Z,7.45
2019-03-27T04:23:47.278Z,7.44
2019-03-27T04:24:47.283Z,7.55
2019-03-27T04:26:08.420Z,7.57
2019-03-27T04:26:47.776Z,7.52
2019-03-27T04:27:51.776Z,7.54
2019-03-27T04:28:47.808Z,7.58
2019-03-27T04:29:48.271Z,7.62
2019-03-27T04:30:48.275Z,7.54
2019-03-27T04:31:48.276Z,7.44
2019-03-27T04:32:48.275Z,7.42
2019-03-27T04:34:13.775Z,7.41
2019-03-27T04:34:48.775Z,7.44
2019-03-27T04:35:48.776Z,7.37
2019-03-27T04:36:48.784Z,7.44
2019-03-27T04:37:49.282Z,7.37
2019-03-27T04:38:49.274Z,7.34
2019-03-27T04:39:54.862Z,7.26
2019-03-27T04:40:49.275Z,7.34
2019-03-27T04:41:49.776Z,7.36
2019-03-27T04:42:49.773Z,7.33
2019-03-27T04:43:49.775Z,7.29
2019-03-27T04:44:53.779Z,7.29
2019-03-27T04:45:50.274Z,7.37
2019-03-27T04:46:50.273Z,7.36
2019-03-27T04:47:50.276Z,7.27
2019-03-27T04:48:50.328Z,7.39
2019-03-27T04:49:50.776Z,7.29
2019-03-27T04:50:53.779Z,7.24
2019-03-27T04:51:53.215Z,7.19
2019-03-27T04:52:50.777Z,7.23
2019-03-27T04:53:50.770Z,7.27
2019-03-27T04:56:26.504Z,7.14
2019-03-27T04:57:22.513Z,7.08
2019-03-27T04:58:22.592Z,7.04
2019-03-27T04:59:23.023Z,7.01
2019-03-27T05:01:57.872Z,7.05
2019-03-27T05:02:54.383Z,6.99
2019-03-27T05:04:15.382Z,7.05
2019-03-27T05:05:15.881Z,7.04
2019-03-27T05:05:54.889Z,6.93
2019-03-27T05:06:54.881Z,6.96
2019-03-27T05:07:58.882Z,6.97
2019-03-27T05:09:16.413Z,6.87
2019-03-27T05:10:16.385Z,6.87
2019-03-27T05:10:55.381Z,6.86
2019-03-27T05:11:55.383Z,6.78
2019-03-27T05:12:55.381Z,6.78
2019-03-27T05:13:58.879Z,6.69
2019-03-27T05:16:29.240Z,6.65
2019-03-27T05:17:27.245Z,6.60
2019-03-27T05:18:27.253Z,6.69
2019-03-27T05:19:31.747Z,6.72
2019-03-27T05:20:48.745Z,6.61
2019-03-27T05:21:27.745Z,6.58
2019-03-27T05:22:27.745Z,6.60
2019-03-27T05:23:28.249Z,6.48
2019-03-27T05:24:28.244Z,6.51
2019-03-27T05:25:31.245Z,6.48
2019-03-27T05:26:28.244Z,6.39
2019-03-27T05:27:28.755Z,6.24
2019-03-27T05:28:28.755Z,6.19
2019-03-27T05:29:30.226Z,6.17
2019-03-27T05:30:32.744Z,6.17
2019-03-27T05:31:29.244Z,6.19
2019-03-27T05:32:29.244Z,6.03
2019-03-27T05:33:32.454Z,6.16
2019-03-27T05:34:29.280Z,6.10
2019-03-27T05:35:30.725Z,5.98
2019-03-27T05:38:25.036Z,5.95
2019-03-27T05:39:04.051Z,5.92
2019-03-27T05:40:04.046Z,5.95
2019-03-27T05:41:04.545Z,5.93
2019-03-27T05:42:08.049Z,5.80
2019-03-27T05:43:04.546Z,5.93
2019-03-27T05:44:04.548Z,5.88
2019-03-27T05:45:05.045Z,5.88
2019-03-27T05:46:05.046Z,6.03
2019-03-27T05:47:05.045Z,5.98
2019-03-27T05:48:09.045Z,5.96
2019-03-27T05:49:05.544Z,5.98
2019-03-27T05:50:05.545Z,6.01
2019-03-27T05:51:05.544Z,5.99
2019-03-27T05:52:05.549Z,5.96
2019-03-27T05:53:06.043Z,6.08
2019-03-27T05:54:09.041Z,6.14
2019-03-27T05:55:06.057Z,6.06
2019-03-27T05:56:06.046Z,6.19
2019-03-27T05:57:06.544Z,6.24
2019-03-27T05:58:06.542Z,6.20
2019-03-27T06:00:41.782Z,6.24
2019-03-27T06:01:41.791Z,6.21
2019-03-27T06:02:41.797Z,6.24
2019-03-27T06:03:42.294Z,6.30
2019-03-27T06:04:45.790Z,6.19
2019-03-27T06:05:42.290Z,6.14
2019-03-27T06:06:42.290Z,6.08
2019-03-27T06:07:42.794Z,6.08
2019-03-27T06:08:42.789Z,5.99
2019-03-27T06:09:42.789Z,5.98
2019-03-27T06:10:46.791Z,6.08
2019-03-27T06:11:43.297Z,6.02
2019-03-27T06:12:43.298Z,5.96
2019-03-27T06:13:43.288Z,6.02
2019-03-27T06:14:43.289Z,6.03
2019-03-27T06:15:45.322Z,6.02
2019-03-27T06:16:46.791Z,6.02
2019-03-27T06:17:43.791Z,6.02
2019-03-27T06:18:43.792Z,6.02
2019-03-27T06:19:44.289Z,6.13
2019-03-27T06:20:44.288Z,6.06
2019-03-27T06:21:48.290Z,6.05
2019-03-27T06:22:44.294Z,5.95
2019-03-27T06:23:45.723Z,6.11
2019-03-27T06:25:05.800Z,6.06
2019-03-27T06:25:44.787Z,6.11
2019-03-27T06:26:48.292Z,6.11
2019-03-27T06:27:46.243Z,6.24
2019-03-27T06:28:45.288Z,6.28
2019-03-27T06:29:45.287Z,6.30
2019-03-27T06:30:45.288Z,6.32
2019-03-27T06:31:49.288Z,6.35
2019-03-27T06:32:45.786Z,6.32
2019-03-27T06:33:45.789Z,6.40
2019-03-27T06:34:45.790Z,6.45
2019-03-27T06:35:45.787Z,6.57
2019-03-27T06:36:46.287Z,6.58
2019-03-27T06:37:49.288Z,6.63
2019-03-27T06:38:46.291Z,6.71
2019-03-27T06:39:46.286Z,6.79
2019-03-27T06:40:46.787Z,6.79
2019-03-27T06:41:46.787Z,6.93
2019-03-27T06:42:52.792Z,7.05
2019-03-27T06:43:46.786Z,7.11
2019-03-27T06:44:47.286Z,7.23
2019-03-27T06:45:47.287Z,7.18
2019-03-27T06:46:47.289Z,7.30
2019-03-27T06:47:47.291Z,7.34
2019-03-27T06:48:51.791Z,7.34
2019-03-27T06:49:49.720Z,7.37
2019-03-27T06:50:47.121Z,7.44
2019-03-27T06:51:47.785Z,7.47
2019-03-27T06:52:47.786Z,7.39
2019-03-27T06:53:48.286Z,7.44
2019-03-27T06:56:43.988Z,7.62
2019-03-27T06:57:22.994Z,7.70
2019-03-27T06:58:23.001Z,7.73
2019-03-27T06:59:23.505Z,7.67
2019-03-27T07:00:26.997Z,7.70
2019-03-27T07:01:23.567Z,7.66
2019-03-27T07:02:23.499Z,7.58
2019-03-27T07:06:30.163Z,7.74
2019-03-27T07:07:28.658Z,7.76
2019-03-27T07:09:58.390Z,7.92
2019-03-27T07:10:58.399Z,7.95
2019-03-27T07:13:33.711Z,8.10
2019-03-27T07:14:33.720Z,8.06
2019-03-27T07:15:35.751Z,8.09
2019-03-27T07:18:09.957Z,8.21
2019-03-27T07:19:05.463Z,8.13
2019-03-27T07:20:05.460Z,8.20
2019-03-27T07:21:05.960Z,8.28
2019-03-27T07:22:05.176Z,8.25
2019-03-27T07:23:05.963Z,8.32
2019-03-27T07:24:09.958Z,8.32
2019-03-27T07:25:06.462Z,8.28
2019-03-27T07:29:13.256Z,8.45
2019-03-27T07:30:09.266Z,8.43
2019-03-27T07:31:09.264Z,8.39
2019-03-27T07:32:09.771Z,8.42
2019-03-27T07:33:32.221Z,8.54
2019-03-27T07:34:13.270Z,8.54
2019-03-27T07:35:09.114Z,8.55
2019-03-27T07:36:10.698Z,8.50
2019-03-27T07:37:10.263Z,8.57
2019-03-27T07:38:10.275Z,8.64
2019-03-27T07:39:14.267Z,8.67
2019-03-27T07:40:10.263Z,8.67
2019-03-27T07:41:12.200Z,8.68
2019-03-27T07:42:10.769Z,8.70
2019-03-27T07:43:10.774Z,8.73
2019-03-27T07:44:10.763Z,8.80
2019-03-27T07:45:36.197Z,8.75
2019-03-27T07:46:11.280Z,8.63
2019-03-27T07:47:11.263Z,8.64
2019-03-27T07:48:11.261Z,8.75
2019-03-27T07:49:13.763Z,8.78
2019-03-27T07:50:36.770Z,8.79
2019-03-27T07:51:11.762Z,8.86
2019-03-27T07:52:11.763Z,8.88
2019-03-27T07:53:12.263Z,8.86
2019-03-27T07:54:12.275Z,8.93
2019-03-27T07:55:19.667Z,8.89
2019-03-27T07:58:07.986Z,8.91
2019-03-27T07:58:46.993Z,8.88
2019-03-27T07:59:46.584Z,8.98
2019-03-27T08:00:46.673Z,8.89
2019-03-27T08:02:11.995Z,8.96
2019-03-27T08:02:47.494Z,8.97
2019-03-27T08:03:47.495Z,8.93
2019-03-27T08:06:19.228Z,8.97
2019-03-27T08:07:26.981Z,9.06
2019-03-27T08:08:19.234Z,9.16
2019-03-27T08:09:22.924Z,9.20
2019-03-27T08:10:19.735Z,9.08
2019-03-27T08:11:19.806Z,9.12
2019-03-27T08:12:19.734Z,9.27
2019-03-27T08:13:23.734Z,9.19
2019-03-27T08:14:20.233Z,9.23
2019-03-27T08:15:20.235Z,9.26
2019-03-27T08:16:20.235Z,9.30
2019-03-27T08:17:20.743Z,9.24
2019-03-27T08:18:20.738Z,9.34
2019-03-27T08:19:24.733Z,9.38
2019-03-27T08:20:20.733Z,9.50
2019-03-27T08:22:52.494Z,9.48
2019-03-27T08:23:52.478Z,9.52
2019-03-27T08:24:56.475Z,9.52
2019-03-27T08:25:54.413Z,9.44
2019-03-27T08:26:52.975Z,9.44
2019-03-27T08:27:52.975Z,9.38
2019-03-27T08:28:52.977Z,9.49
2019-03-27T08:29:53.475Z,9.52
2019-03-27T08:30:57.477Z,9.58
2019-03-27T08:31:53.477Z,9.55
2019-03-27T08:32:53.474Z,9.59
2019-03-27T08:33:53.973Z,9.56
2019-03-27T08:35:15.943Z,9.52
2019-03-27T08:35:53.293Z,9.60
2019-03-27T08:36:57.486Z,9.60
2019-03-27T08:37:53.975Z,9.62
2019-03-27T08:38:54.488Z,9.59
2019-03-27T08:41:25.869Z,9.65
2019-03-27T08:42:28.863Z,9.73
2019-03-27T08:43:46.852Z,9.74
2019-03-27T08:44:26.351Z,9.65
2019-03-27T08:45:26.354Z,9.78
2019-03-27T08:46:26.351Z,9.85
2019-03-27T08:47:53.354Z,9.83
2019-03-27T08:48:48.807Z,9.88
2019-03-27T08:49:47.850Z,9.95
2019-03-27T08:50:49.856Z,10.06
2019-03-27T08:51:26.851Z,10.20
2019-03-27T08:52:28.284Z,10.16
2019-03-27T08:53:53.358Z,10.28
2019-03-27T08:54:48.350Z,10.13
2019-03-27T08:55:31.291Z,10.06
2019-03-27T08:56:27.350Z,10.16
2019-03-27T08:59:02.036Z,10.13
2019-03-27T08:59:59.093Z,10.24
2019-03-27T09:00:59.092Z,10.26
2019-03-27T09:02:01.593Z,10.22
2019-03-27T09:06:05.758Z,10.47
2019-03-27T09:07:05.764Z,10.42
2019-03-27T09:08:06.264Z,10.35
2019-03-27T09:09:06.266Z,10.36
2019-03-27T09:11:41.416Z,10.55
2019-03-27T09:12:41.420Z,10.55
2019-03-27T09:13:41.932Z,10.43
2019-03-27T09:14:41.923Z,10.46
2019-03-27T09:15:45.453Z,10.51
2019-03-27T09:16:41.921Z,10.65
2019-03-27T09:17:42.422Z,10.81
2019-03-27T09:19:03.422Z,10.91
2019-03-27T09:19:42.425Z,10.98
2019-03-27T09:21:06.926Z,10.91
2019-03-27T09:22:03.924Z,10.91
2019-03-27T09:22:42.921Z,11.05
2019-03-27T09:23:45.572Z,10.93
2019-03-27T09:24:42.939Z,11.03
2019-03-27T09:25:42.526Z,11.16
2019-03-27T09:27:07.931Z,11.12
2019-03-27T09:27:43.431Z,11.11
2019-03-27T09:30:15.033Z,10.98
2019-03-27T09:31:44.822Z,10.95
2019-03-27T09:33:49.770Z,11.03
2019-03-27T09:34:49.777Z,11.16
2019-03-27T09:35:49.824Z,11.13
2019-03-27T09:36:52.280Z,11.23
2019-03-27T09:37:53.778Z,11.28
2019-03-27T09:38:50.278Z,11.33
2019-03-27T09:39:50.277Z,11.23
2019-03-27T09:42:22.013Z,11.28
2019-03-27T09:43:25.604Z,11.38
2019-03-27T09:44:22.528Z,11.35
2019-03-27T09:45:22.522Z,11.31
2019-03-27T09:46:22.528Z,11.27
2019-03-27T09:47:22.524Z,11.27
2019-03-27T09:48:26.521Z,11.30
2019-03-27T09:49:23.020Z,11.45
2019-03-27T09:50:23.022Z,11.45
2019-03-27T09:51:23.018Z,11.51
2019-03-27T09:52:44.522Z,11.60
2019-03-27T09:53:28.043Z,11.66
2019-03-27T09:54:23.534Z,11.69
2019-03-27T09:55:23.547Z,11.72
2019-03-27T09:56:24.021Z,11.67
2019-03-27T09:57:24.019Z,11.74
2019-03-27T09:58:24.024Z,11.84
2019-03-27T09:59:28.023Z,11.79
2019-03-27T10:00:38.520Z,11.94
2019-03-27T10:01:24.525Z,11.87
2019-03-27T10:02:45.520Z,12.03
2019-03-27T10:03:23.994Z,12.01
2019-03-27T10:04:49.520Z,12.12
2019-03-27T10:05:25.020Z,12.23
2019-03-27T10:06:25.020Z,12.18
2019-03-27T10:07:25.020Z,12.23
2019-03-27T10:08:46.520Z,12.37
2019-03-27T10:09:25.520Z,12.38
2019-03-27T10:10:29.023Z,12.36
2019-03-27T10:11:25.520Z,12.41
2019-03-27T10:12:47.020Z,12.44
2019-03-27T10:13:26.019Z,12.21
2019-03-27T10:14:47.714Z,12.25
2019-03-27T10:15:29.020Z,12.40
2019-03-27T10:16:47.522Z,12.36
2019-03-27T10:17:26.522Z,12.48
2019-03-27T10:18:26.520Z,12.36
2019-03-27T10:19:26.526Z,12.36
2019-03-27T10:20:53.552Z,12.25
2019-03-27T10:21:27.041Z,12.41
2019-03-27T10:22:48.031Z,12.37
2019-03-27T10:23:27.017Z,12.38
2019-03-27T10:24:27.520Z,12.44
2019-03-27T10:27:08.911Z,12.25
2019-03-27T10:28:02.911Z,12.38
2019-03-27T10:29:03.415Z,12.36
2019-03-27T10:30:03.413Z,12.48
2019-03-27T10:31:06.912Z,12.54
2019-03-27T10:32:03.420Z,12.71
2019-03-27T10:33:24.911Z,12.76
2019-03-27T10:34:03.912Z,12.91
2019-03-27T10:35:03.912Z,12.98
2019-03-27T10:37:38.701Z,13.22
2019-03-27T10:38:41.522Z,13.13
2019-03-27T10:39:38.178Z,13.35
2019-03-27T10:40:38.270Z,13.53
2019-03-27T10:41:44.142Z,13.47
2019-03-27T10:43:00.212Z,13.43
2019-03-27T10:43:39.208Z,13.53
2019-03-27T10:44:39.211Z,13.51
2019-03-27T10:46:00.718Z,13.48
2019-03-27T10:46:40.671Z,13.38
2019-03-27T10:49:14.890Z,13.79
2019-03-27T10:50:17.943Z,13.81
2019-03-27T10:52:50.146Z,13.87
2019-03-27T10:53:46.645Z,13.98
2019-03-27T10:54:46.643Z,14.04
2019-03-27T10:55:47.143Z,14.04
2019-03-27T10:56:47.142Z,14.11
2019-03-27T10:57:47.144Z,14.12
2019-03-27T10:58:51.143Z,14.29
2019-03-27T10:59:47.641Z,14.34
2019-03-27T11:00:47.643Z,14.26
2019-03-27T11:01:47.689Z,14.04
2019-03-27T11:02:47.643Z,13.62
2019-03-27T11:03:47.644Z,13.61
2019-03-27T11:04:50.142Z,13.46
2019-03-27T11:05:48.153Z,13.38
2019-03-27T11:06:48.142Z,13.41
2019-03-27T11:07:48.144Z,13.48
2019-03-27T11:09:11.122Z,13.51
2019-03-27T11:09:52.142Z,13.51
2019-03-27T11:10:48.641Z,13.47
2019-03-27T11:11:48.643Z,13.36
2019-03-27T11:12:49.146Z,13.29
2019-03-27T11:13:49.170Z,13.31
2019-03-27T11:14:49.143Z,13.44
2019-03-27T11:15:53.160Z,13.38
2019-03-27T11:16:49.643Z,13.46
2019-03-27T11:17:49.644Z,13.46
2019-03-27T11:18:49.644Z,13.39
2019-03-27T11:19:49.644Z,13.47
2019-03-27T11:21:04.142Z,13.55
2019-03-27T11:21:53.141Z,13.38
2019-03-27T11:22:50.142Z,13.29
2019-03-27T11:23:50.162Z,13.24
2019-03-27T11:24:50.644Z,13.24
2019-03-27T11:27:26.012Z,13.19
2019-03-27T11:28:22.023Z,13.22
2019-03-27T11:30:55.760Z,13.27
2019-03-27T11:31:53.767Z,13.32
2019-03-27T11:32:57.267Z,13.31
2019-03-27T11:34:15.272Z,13.29
2019-03-27T11:35:15.267Z,13.32
2019-03-27T11:35:54.267Z,13.50
2019-03-27T11:36:53.736Z,13.62
2019-03-27T11:38:00.228Z,13.48
2019-03-27T11:38:54.777Z,13.71
2019-03-27T11:39:54.769Z,13.87
2019-03-27T11:41:15.767Z,14.08
2019-03-27T11:43:30.010Z,13.48
2019-03-27T11:44:47.523Z,13.51
2019-03-27T11:45:26.527Z,13.68
2019-03-27T11:47:58.277Z,13.59
2019-03-27T11:49:01.776Z,13.80
2019-03-27T11:51:29.895Z,14.08
2019-03-27T11:52:30.018Z,14.26
2019-03-27T11:53:30.411Z,14.42
2019-03-27T11:56:05.831Z,14.74
2019-03-27T11:57:05.911Z,14.83
2019-03-27T11:58:05.837Z,15.51
2019-03-27T11:59:06.353Z,15.64
2019-03-27T12:00:09.843Z,15.37
2019-03-27T12:01:05.688Z,15.13
2019-03-27T12:02:06.331Z,14.87
2019-03-27T12:03:06.840Z,14.85
2019-03-27T12:04:27.909Z,14.74
2019-03-27T12:05:06.840Z,14.36
2019-03-27T12:06:10.844Z,14.24
2019-03-27T12:07:07.336Z,14.21
2019-03-27T12:09:50.297Z,14.34
2019-03-27T12:10:50.207Z,14.67
2019-03-27T12:11:53.814Z,14.83
2019-03-27T12:12:49.662Z,16.06
2019-03-27T12:13:50.759Z,16.45
2019-03-27T12:14:50.784Z,18.04
2019-03-27T12:15:56.684Z,18.89
2019-03-27T12:16:50.769Z,19.45
2019-03-27T12:17:54.932Z,19.60
2019-03-27T12:18:50.737Z,20.16
2019-03-27T12:22:57.896Z,20.23
2019-03-27T12:23:31.063Z,20.17
2019-03-27T12:24:31.063Z,21.00
2019-03-27T12:25:31.063Z,20.57
2019-03-27T12:26:31.569Z,19.71
2019-03-27T12:27:31.563Z,19.05
2019-03-27T12:28:39.565Z,18.79
2019-03-27T12:29:31.565Z,18.50
2019-03-27T12:30:38.063Z,18.11
2019-03-27T12:33:24.451Z,16.85
2019-03-27T12:34:07.455Z,16.51
2019-03-27T12:35:03.953Z,16.14
2019-03-27T12:37:56.331Z,15.93
2019-03-27T12:38:57.772Z,15.67
2019-03-27T12:39:40.764Z,15.98
2019-03-27T12:40:56.844Z,15.96
2019-03-27T12:43:07.726Z,18.89
2019-03-27T12:44:11.858Z,19.62
2019-03-27T12:45:11.229Z,20.44
2019-03-27T12:46:08.226Z,20.97
2019-03-27T12:47:08.230Z,21.42
2019-03-27T12:48:08.233Z,21.66
2019-03-27T12:49:08.227Z,22.38
2019-03-27T12:50:15.665Z,22.39
2019-03-27T12:51:12.973Z,22.64
2019-03-27T12:52:08.732Z,22.81
2019-03-27T12:53:08.733Z,23.19
2019-03-27T12:54:09.226Z,23.03
2019-03-27T12:55:09.231Z,23.18
2019-03-27T12:56:12.773Z,22.96
2019-03-27T12:57:09.226Z,23.38
2019-03-27T12:58:11.788Z,23.64
2019-03-27T12:59:30.727Z,23.92
2019-03-27T13:00:09.122Z,23.63
2019-03-27T13:02:45.211Z,23.71
2019-03-27T13:03:45.215Z,23.01
2019-03-27T13:04:45.777Z,21.51
2019-03-27T13:07:20.612Z,19.90
2019-03-27T13:08:17.619Z,19.38
2019-03-27T13:09:19.050Z,18.96
2019-03-27T13:10:20.049Z,18.21
2019-03-27T13:11:18.124Z,17.65
2019-03-27T13:12:43.121Z,17.14
2019-03-27T13:13:18.139Z,17.02
2019-03-27T13:14:39.119Z,17.79
2019-03-27T13:15:18.617Z,18.74
2019-03-27T13:16:18.627Z,19.61
2019-03-27T13:17:18.619Z,20.50
2019-03-27T13:18:22.116Z,20.97
2019-03-27T13:19:19.143Z,20.85
2019-03-27T13:20:19.118Z,20.66
2019-03-27T13:21:26.130Z,20.83
2019-03-27T13:22:18.599Z,21.53
2019-03-27T13:23:23.125Z,21.52
2019-03-27T13:24:19.617Z,21.79
2019-03-27T13:25:40.618Z,22.33
2019-03-27T13:26:20.594Z,22.29
2019-03-27T13:28:54.865Z,21.33
2019-03-27T13:29:51.372Z,20.98
2019-03-27T13:30:51.367Z,20.63
2019-03-27T13:32:12.866Z,20.76
2019-03-27T13:32:51.868Z,20.93
2019-03-27T13:33:55.867Z,21.00
2019-03-27T13:35:12.872Z,21.55
2019-03-27T13:36:13.367Z,22.05
2019-03-27T13:37:13.369Z,22.26
2019-03-27T13:38:13.399Z,21.83
2019-03-27T13:38:52.367Z,20.87
2019-03-27T13:39:55.867Z,20.19
2019-03-27T13:42:45.261Z,19.57
2019-03-27T13:43:24.341Z,18.83
2019-03-27T13:44:36.433Z,18.34
2019-03-27T13:45:28.764Z,18.01
2019-03-27T13:46:24.768Z,17.60
2019-03-27T13:47:24.772Z,17.32
2019-03-27T13:48:24.769Z,17.10
2019-03-27T13:51:00.027Z,16.48
2019-03-27T13:51:56.531Z,16.51
2019-03-27T13:52:56.533Z,16.36
2019-03-27T13:53:57.032Z,16.36
2019-03-27T13:54:58.468Z,17.05
2019-03-27T13:56:00.031Z,17.53
2019-03-27T13:56:57.032Z,18.01
2019-03-27T13:57:57.533Z,18.86
2019-03-27T13:58:57.535Z,18.83
2019-03-27T14:00:03.532Z,19.49
2019-03-27T14:01:01.530Z,20.15
2019-03-27T14:01:58.975Z,20.37
2019-03-27T14:02:58.033Z,20.02
2019-03-27T14:03:58.969Z,19.13
2019-03-27T14:05:00.029Z,18.56
2019-03-27T14:05:58.037Z,18.90
2019-03-27T14:07:02.533Z,18.69
2019-03-27T14:07:58.537Z,18.53
2019-03-27T14:08:58.532Z,18.56
2019-03-27T14:09:58.533Z,19.02
2019-03-27T14:10:59.034Z,19.28
2019-03-27T14:11:59.042Z,19.45
2019-03-27T14:13:02.531Z,19.47
2019-03-27T14:14:10.580Z,19.10
2019-03-27T14:14:59.536Z,18.82
2019-03-27T14:15:59.542Z,18.60
2019-03-27T14:16:59.534Z,18.34
2019-03-27T14:18:03.550Z,18.11
2019-03-27T14:19:00.033Z,18.21
2019-03-27T14:20:00.034Z,18.39
2019-03-27T14:21:00.034Z,18.10
2019-03-27T14:22:00.037Z,18.05
2019-03-27T14:23:00.532Z,18.14
2019-03-27T14:24:04.535Z,18.07
2019-03-27T14:25:00.536Z,17.98
2019-03-27T14:26:21.556Z,18.05
2019-03-27T14:27:02.489Z,18.10